sensor_id;sensor_type;location;lat;lon;timestamp;P1;durP1;ratioP1;P2;durP2;ratioP2
49854;SDS011;35752;52.164;21.244;2022-08-11T00:00:36;7.93;;;4.43;;
49854;SDS011;35752;52.164;21.244;2022-08-11T00:03:07;6.97;;;4.07;;
49854;SDS011;35752;52.164;21.244;2022-08-11T00:08:19;6.80;;;4.30;;
49854;SDS011;35752;52.164;21.244;2022-08-11T00:11:07;7.05;;;4.45;;
49854;SDS011;35752;52.164;21.244;2022-08-11T00:13:39;9.15;;;3.80;;
49854;SDS011;35752;52.164;21.244;2022-08-11T00:16:21;6.97;;;3.90;;
49854;SDS011;35752;52.164;21.244;2022-08-11T00:18:49;8.73;;;4.03;;
49854;SDS011;35752;52.164;21.244;2022-08-11T00:21:21;6.50;;;3.83;;
49854;SDS011;35752;52.164;21.244;2022-08-11T00:23:56;6.05;;;4.07;;
49854;SDS011;35752;52.164;21.244;2022-08-11T00:26:24;5.50;;;4.30;;
49854;SDS011;35752;52.164;21.244;2022-08-11T00:28:52;8.10;;;4.05;;
49854;SDS011;35752;52.164;21.244;2022-08-11T00:31:22;6.63;;;3.53;;
49854;SDS011;35752;52.164;21.244;2022-08-11T00:33:52;5.70;;;3.80;;
49854;SDS011;35752;52.164;21.244;2022-08-11T00:36:21;7.18;;;3.83;;
49854;SDS011;35752;52.164;21.244;2022-08-11T00:38:53;5.13;;;3.90;;
49854;SDS011;35752;52.164;21.244;2022-08-11T00:49:23;5.68;;;3.47;;
49854;SDS011;35752;52.164;21.244;2022-08-11T00:52:26;7.50;;;3.45;;
49854;SDS011;35752;52.164;21.244;2022-08-11T01:12:15;6.53;;;3.72;;
49854;SDS011;35752;52.164;21.244;2022-08-11T01:23:25;6.03;;;3.65;;
49854;SDS011;35752;52.164;21.244;2022-08-11T01:34:53;5.57;;;3.97;;
49854;SDS011;35752;52.164;21.244;2022-08-11T01:46:30;7.00;;;3.78;;
49854;SDS011;35752;52.164;21.244;2022-08-11T01:52:33;8.02;;;3.92;;
49854;SDS011;35752;52.164;21.244;2022-08-11T02:00:38;5.93;;;3.60;;
49854;SDS011;35752;52.164;21.244;2022-08-11T02:03:23;5.45;;;3.60;;
49854;SDS011;35752;52.164;21.244;2022-08-11T02:11:41;11.32;;;3.95;;
49854;SDS011;35752;52.164;21.244;2022-08-11T02:22:54;6.72;;;3.60;;
49854;SDS011;35752;52.164;21.244;2022-08-11T02:25:45;6.30;;;4.40;;
49854;SDS011;35752;52.164;21.244;2022-08-11T02:28:18;5.47;;;3.45;;
49854;SDS011;35752;52.164;21.244;2022-08-11T02:30:59;6.63;;;3.60;;
49854;SDS011;35752;52.164;21.244;2022-08-11T02:33:49;6.43;;;3.22;;
49854;SDS011;35752;52.164;21.244;2022-08-11T02:40:07;8.48;;;4.00;;
49854;SDS011;35752;52.164;21.244;2022-08-11T02:42:37;8.10;;;4.65;;
49854;SDS011;35752;52.164;21.244;2022-08-11T02:50:56;5.68;;;4.50;;
49854;SDS011;35752;52.164;21.244;2022-08-11T03:10:07;6.13;;;4.13;;
49854;SDS011;35752;52.164;21.244;2022-08-11T03:12:40;5.97;;;4.20;;
49854;SDS011;35752;52.164;21.244;2022-08-11T03:19:02;10.40;;;4.75;;
49854;SDS011;35752;52.164;21.244;2022-08-11T03:21:56;9.40;;;4.30;;
49854;SDS011;35752;52.164;21.244;2022-08-11T03:30:15;9.52;;;4.10;;
49854;SDS011;35752;52.164;21.244;2022-08-11T03:33:32;8.88;;;3.80;;
49854;SDS011;35752;52.164;21.244;2022-08-11T03:38:44;8.82;;;4.32;;
49854;SDS011;35752;52.164;21.244;2022-08-11T03:41:31;8.02;;;4.50;;
49854;SDS011;35752;52.164;21.244;2022-08-11T03:44:17;9.57;;;4.13;;
49854;SDS011;35752;52.164;21.244;2022-08-11T03:46:59;8.68;;;4.25;;
49854;SDS011;35752;52.164;21.244;2022-08-11T03:49:56;5.22;;;3.33;;
49854;SDS011;35752;52.164;21.244;2022-08-11T04:23:10;5.95;;;3.42;;
49854;SDS011;35752;52.164;21.244;2022-08-11T04:34:11;39.30;;;4.78;;
49854;SDS011;35752;52.164;21.244;2022-08-11T04:42:48;6.78;;;3.08;;
49854;SDS011;35752;52.164;21.244;2022-08-11T04:48:42;9.45;;;2.85;;
49854;SDS011;35752;52.164;21.244;2022-08-11T05:14:54;10.63;;;2.90;;
49854;SDS011;35752;52.164;21.244;2022-08-11T05:17:44;7.07;;;2.67;;
49854;SDS011;35752;52.164;21.244;2022-08-11T05:20:47;6.10;;;2.97;;
49854;SDS011;35752;52.164;21.244;2022-08-11T05:23:35;7.43;;;2.53;;
49854;SDS011;35752;52.164;21.244;2022-08-11T05:26:24;7.18;;;2.45;;
49854;SDS011;35752;52.164;21.244;2022-08-11T05:29:25;6.40;;;2.97;;
49854;SDS011;35752;52.164;21.244;2022-08-11T05:32:24;4.88;;;2.83;;
49854;SDS011;35752;52.164;21.244;2022-08-11T05:35:16;7.82;;;2.35;;
49854;SDS011;35752;52.164;21.244;2022-08-11T05:38:21;9.85;;;2.22;;
49854;SDS011;35752;52.164;21.244;2022-08-11T05:41:12;7.63;;;2.22;;
49854;SDS011;35752;52.164;21.244;2022-08-11T05:44:00;6.13;;;2.10;;
49854;SDS011;35752;52.164;21.244;2022-08-11T05:46:46;9.47;;;2.23;;
49854;SDS011;35752;52.164;21.244;2022-08-11T05:49:32;5.97;;;2.35;;
49854;SDS011;35752;52.164;21.244;2022-08-11T05:52:22;4.53;;;2.08;;
49854;SDS011;35752;52.164;21.244;2022-08-11T05:55:08;6.38;;;2.00;;
49854;SDS011;35752;52.164;21.244;2022-08-11T05:58:01;4.93;;;1.85;;
49854;SDS011;35752;52.164;21.244;2022-08-11T06:00:38;4.78;;;2.42;;
49854;SDS011;35752;52.164;21.244;2022-08-11T06:03:06;3.67;;;1.70;;
49854;SDS011;35752;52.164;21.244;2022-08-11T06:05:35;11.50;;;2.08;;
49854;SDS011;35752;52.164;21.244;2022-08-11T06:08:05;3.50;;;1.77;;
49854;SDS011;35752;52.164;21.244;2022-08-11T06:10:33;5.70;;;1.88;;
49854;SDS011;35752;52.164;21.244;2022-08-11T06:13:01;6.45;;;1.60;;
49854;SDS011;35752;52.164;21.244;2022-08-11T06:15:29;4.75;;;1.40;;
49854;SDS011;35752;52.164;21.244;2022-08-11T06:17:58;4.15;;;1.70;;
49854;SDS011;35752;52.164;21.244;2022-08-11T06:20:27;5.05;;;1.52;;
49854;SDS011;35752;52.164;21.244;2022-08-11T06:23:02;3.28;;;1.58;;
49854;SDS011;35752;52.164;21.244;2022-08-11T06:25:30;5.85;;;1.45;;
49854;SDS011;35752;52.164;21.244;2022-08-11T06:28:01;2.83;;;1.25;;
49854;SDS011;35752;52.164;21.244;2022-08-11T06:30:38;3.37;;;0.97;;
49854;SDS011;35752;52.164;21.244;2022-08-11T06:33:51;2.85;;;1.08;;
49854;SDS011;35752;52.164;21.244;2022-08-11T06:36:04;10.70;;;1.38;;
49854;SDS011;35752;52.164;21.244;2022-08-11T06:41:37;3.67;;;0.88;;
49854;SDS011;35752;52.164;21.244;2022-08-11T06:49:08;3.85;;;1.08;;
49854;SDS011;35752;52.164;21.244;2022-08-11T06:52:02;4.00;;;1.10;;
49854;SDS011;35752;52.164;21.244;2022-08-11T06:54:35;4.38;;;1.08;;
49854;SDS011;35752;52.164;21.244;2022-08-11T06:57:10;3.95;;;1.33;;
49854;SDS011;35752;52.164;21.244;2022-08-11T06:59:56;3.72;;;1.00;;
49854;SDS011;35752;52.164;21.244;2022-08-11T07:03:09;2.40;;;0.88;;
49854;SDS011;35752;52.164;21.244;2022-08-11T07:14:05;4.97;;;0.93;;
49854;SDS011;35752;52.164;21.244;2022-08-11T07:16:50;1.75;;;1.05;;
49854;SDS011;35752;52.164;21.244;2022-08-11T07:19:22;1.92;;;1.08;;
49854;SDS011;35752;52.164;21.244;2022-08-11T07:22:09;4.38;;;0.80;;
49854;SDS011;35752;52.164;21.244;2022-08-11T07:25:02;1.45;;;0.80;;
49854;SDS011;35752;52.164;21.244;2022-08-11T07:31:09;2.60;;;1.08;;
49854;SDS011;35752;52.164;21.244;2022-08-11T07:33:51;4.20;;;0.85;;
49854;SDS011;35752;52.164;21.244;2022-08-11T07:36:21;7.07;;;1.35;;
49854;SDS011;35752;52.164;21.244;2022-08-11T07:38:52;5.60;;;1.25;;
49854;SDS011;35752;52.164;21.244;2022-08-11T07:41:23;3.38;;;0.93;;
49854;SDS011;35752;52.164;21.244;2022-08-11T07:43:54;3.30;;;1.33;;
49854;SDS011;35752;52.164;21.244;2022-08-11T07:46:33;3.63;;;1.08;;
49854;SDS011;35752;52.164;21.244;2022-08-11T07:49:29;3.92;;;0.90;;
49854;SDS011;35752;52.164;21.244;2022-08-11T07:52:17;2.65;;;0.80;;
49854;SDS011;35752;52.164;21.244;2022-08-11T07:55:04;3.92;;;0.82;;
49854;SDS011;35752;52.164;21.244;2022-08-11T07:57:33;1.83;;;0.73;;
49854;SDS011;35752;52.164;21.244;2022-08-11T08:00:18;6.65;;;0.77;;
49854;SDS011;35752;52.164;21.244;2022-08-11T08:03:05;3.03;;;0.80;;
49854;SDS011;35752;52.164;21.244;2022-08-11T08:05:51;3.30;;;0.90;;
49854;SDS011;35752;52.164;21.244;2022-08-11T08:08:36;4.25;;;0.70;;
49854;SDS011;35752;52.164;21.244;2022-08-11T08:11:24;3.30;;;0.85;;
49854;SDS011;35752;52.164;21.244;2022-08-11T08:14:09;3.78;;;1.10;;
49854;SDS011;35752;52.164;21.244;2022-08-11T08:16:55;1.75;;;0.80;;
49854;SDS011;35752;52.164;21.244;2022-08-11T08:19:46;2.72;;;0.88;;
49854;SDS011;35752;52.164;21.244;2022-08-11T08:22:19;1.70;;;0.82;;
49854;SDS011;35752;52.164;21.244;2022-08-11T08:24:48;3.03;;;1.00;;
49854;SDS011;35752;52.164;21.244;2022-08-11T08:27:15;2.80;;;0.68;;
49854;SDS011;35752;52.164;21.244;2022-08-11T08:29:42;1.23;;;0.52;;
49854;SDS011;35752;52.164;21.244;2022-08-11T08:32:27;2.05;;;0.75;;
49854;SDS011;35752;52.164;21.244;2022-08-11T08:35:02;2.35;;;0.75;;
49854;SDS011;35752;52.164;21.244;2022-08-11T08:37:29;2.53;;;0.65;;
49854;SDS011;35752;52.164;21.244;2022-08-11T08:39:56;1.20;;;0.60;;
49854;SDS011;35752;52.164;21.244;2022-08-11T08:42:24;3.55;;;0.50;;
49854;SDS011;35752;52.164;21.244;2022-08-11T08:45:01;1.60;;;0.40;;
49854;SDS011;35752;52.164;21.244;2022-08-11T08:47:36;2.00;;;0.47;;
49854;SDS011;35752;52.164;21.244;2022-08-11T08:50:13;1.92;;;0.57;;
49854;SDS011;35752;52.164;21.244;2022-08-11T08:52:49;4.03;;;0.73;;
49854;SDS011;35752;52.164;21.244;2022-08-11T08:55:22;2.58;;;0.65;;
49854;SDS011;35752;52.164;21.244;2022-08-11T08:57:50;3.13;;;0.43;;
49854;SDS011;35752;52.164;21.244;2022-08-11T09:00:18;3.50;;;0.60;;
49854;SDS011;35752;52.164;21.244;2022-08-11T09:02:45;2.80;;;0.40;;
49854;SDS011;35752;52.164;21.244;2022-08-11T09:05:12;1.27;;;0.60;;
49854;SDS011;35752;52.164;21.244;2022-08-11T09:07:41;5.85;;;0.70;;
49854;SDS011;35752;52.164;21.244;2022-08-11T09:10:11;1.13;;;0.40;;
49854;SDS011;35752;52.164;21.244;2022-08-11T09:12:51;2.75;;;0.43;;
49854;SDS011;35752;52.164;21.244;2022-08-11T09:15:21;7.53;;;0.80;;
49854;SDS011;35752;52.164;21.244;2022-08-11T09:17:54;1.48;;;0.47;;
49854;SDS011;35752;52.164;21.244;2022-08-11T09:20:31;2.00;;;0.40;;
49854;SDS011;35752;52.164;21.244;2022-08-11T09:23:00;1.25;;;0.40;;
49854;SDS011;35752;52.164;21.244;2022-08-11T09:25:46;3.63;;;0.63;;
49854;SDS011;35752;52.164;21.244;2022-08-11T09:28:35;9.30;;;0.93;;
49854;SDS011;35752;52.164;21.244;2022-08-11T09:31:01;7.13;;;0.80;;
49854;SDS011;35752;52.164;21.244;2022-08-11T09:33:28;0.70;;;0.30;;
49854;SDS011;35752;52.164;21.244;2022-08-11T09:36:00;3.35;;;0.73;;
49854;SDS011;35752;52.164;21.244;2022-08-11T09:38:49;3.05;;;0.60;;
49854;SDS011;35752;52.164;21.244;2022-08-11T09:41:35;3.17;;;0.38;;
49854;SDS011;35752;52.164;21.244;2022-08-11T09:44:04;2.63;;;0.40;;
49854;SDS011;35752;52.164;21.244;2022-08-11T09:46:50;7.82;;;0.75;;
49854;SDS011;35752;52.164;21.244;2022-08-11T09:49:19;0.30;;;0.10;;
49854;SDS011;35752;52.164;21.244;2022-08-11T09:51:48;1.40;;;0.40;;
49854;SDS011;35752;52.164;21.244;2022-08-11T09:54:14;2.83;;;0.50;;
49854;SDS011;35752;52.164;21.244;2022-08-11T09:56:42;1.05;;;0.30;;
49854;SDS011;35752;52.164;21.244;2022-08-11T09:59:27;0.68;;;0.30;;
49854;SDS011;35752;52.164;21.244;2022-08-11T10:01:55;2.72;;;0.35;;
49854;SDS011;35752;52.164;21.244;2022-08-11T10:04:27;1.85;;;0.43;;
49854;SDS011;35752;52.164;21.244;2022-08-11T10:07:02;0.85;;;0.50;;
49854;SDS011;35752;52.164;21.244;2022-08-11T10:12:09;3.00;;;0.20;;
49854;SDS011;35752;52.164;21.244;2022-08-11T10:14:40;0.45;;;0.20;;
49854;SDS011;35752;52.164;21.244;2022-08-11T10:17:32;3.63;;;0.43;;
49854;SDS011;35752;52.164;21.244;2022-08-11T10:20:00;1.88;;;0.30;;
49854;SDS011;35752;52.164;21.244;2022-08-11T10:22:28;2.70;;;0.35;;
49854;SDS011;35752;52.164;21.244;2022-08-11T10:25:15;1.98;;;0.43;;
49854;SDS011;35752;52.164;21.244;2022-08-11T10:28:03;1.00;;;0.32;;
49854;SDS011;35752;52.164;21.244;2022-08-11T10:30:33;0.75;;;0.30;;
49854;SDS011;35752;52.164;21.244;2022-08-11T10:33:17;2.05;;;0.43;;
49854;SDS011;35752;52.164;21.244;2022-08-11T10:36:06;3.63;;;0.40;;
49854;SDS011;35752;52.164;21.244;2022-08-11T10:38:32;1.10;;;0.22;;
49854;SDS011;35752;52.164;21.244;2022-08-11T10:40:59;2.30;;;0.30;;
49854;SDS011;35752;52.164;21.244;2022-08-11T10:43:45;3.30;;;0.40;;
49854;SDS011;35752;52.164;21.244;2022-08-11T10:46:14;3.15;;;0.57;;
49854;SDS011;35752;52.164;21.244;2022-08-11T10:48:58;1.83;;;0.30;;
49854;SDS011;35752;52.164;21.244;2022-08-11T10:51:35;2.67;;;0.50;;
49854;SDS011;35752;52.164;21.244;2022-08-11T10:54:22;2.08;;;0.43;;
49854;SDS011;35752;52.164;21.244;2022-08-11T10:57:09;1.25;;;0.55;;
49854;SDS011;35752;52.164;21.244;2022-08-11T10:59:56;6.28;;;0.50;;
49854;SDS011;35752;52.164;21.244;2022-08-11T11:02:32;9.98;;;0.60;;
49854;SDS011;35752;52.164;21.244;2022-08-11T11:05:03;6.07;;;0.43;;
49854;SDS011;35752;52.164;21.244;2022-08-11T11:10:51;13.18;;;0.98;;
49854;SDS011;35752;52.164;21.244;2022-08-11T11:13:17;1.58;;;0.25;;
49854;SDS011;35752;52.164;21.244;2022-08-11T11:16:03;1.45;;;0.40;;
49854;SDS011;35752;52.164;21.244;2022-08-11T11:18:47;1.75;;;0.40;;
49854;SDS011;35752;52.164;21.244;2022-08-11T11:21:22;3.67;;;0.40;;
49854;SDS011;35752;52.164;21.244;2022-08-11T11:23:55;4.35;;;0.60;;
49854;SDS011;35752;52.164;21.244;2022-08-11T11:26:59;2.30;;;0.30;;
49854;SDS011;35752;52.164;21.244;2022-08-11T11:29:56;1.40;;;0.50;;
49854;SDS011;35752;52.164;21.244;2022-08-11T11:37:50;2.08;;;0.47;;
49854;SDS011;35752;52.164;21.244;2022-08-11T11:40:20;2.55;;;0.35;;
49854;SDS011;35752;52.164;21.244;2022-08-11T11:42:55;2.47;;;0.40;;
49854;SDS011;35752;52.164;21.244;2022-08-11T11:45:31;4.15;;;0.60;;
49854;SDS011;35752;52.164;21.244;2022-08-11T11:47:59;1.25;;;0.30;;
49854;SDS011;35752;52.164;21.244;2022-08-11T11:50:33;2.67;;;0.20;;
49854;SDS011;35752;52.164;21.244;2022-08-11T11:53:17;1.55;;;0.50;;
49854;SDS011;35752;52.164;21.244;2022-08-11T11:55:51;0.40;;;0.17;;
49854;SDS011;35752;52.164;21.244;2022-08-11T11:58:17;3.83;;;0.30;;
49854;SDS011;35752;52.164;21.244;2022-08-11T12:01:02;0.30;;;0.20;;
49854;SDS011;35752;52.164;21.244;2022-08-11T12:03:42;1.60;;;0.38;;
49854;SDS011;35752;52.164;21.244;2022-08-11T12:06:19;1.20;;;0.30;;
49854;SDS011;35752;52.164;21.244;2022-08-11T12:08:57;28.10;;;2.13;;
49854;SDS011;35752;52.164;21.244;2022-08-11T12:11:32;2.13;;;0.50;;
49854;SDS011;35752;52.164;21.244;2022-08-11T12:14:22;1.42;;;0.45;;
49854;SDS011;35752;52.164;21.244;2022-08-11T12:16:54;3.92;;;0.40;;
49854;SDS011;35752;52.164;21.244;2022-08-11T12:19:24;2.88;;;0.30;;
49854;SDS011;35752;52.164;21.244;2022-08-11T12:21:55;1.02;;;0.30;;
49854;SDS011;35752;52.164;21.244;2022-08-11T12:24:48;3.05;;;0.50;;
49854;SDS011;35752;52.164;21.244;2022-08-11T12:27:35;1.83;;;0.30;;
49854;SDS011;35752;52.164;21.244;2022-08-11T12:30:15;1.55;;;0.50;;
49854;SDS011;35752;52.164;21.244;2022-08-11T12:32:53;11.50;;;0.60;;
49854;SDS011;35752;52.164;21.244;2022-08-11T12:35:22;4.25;;;0.50;;
49854;SDS011;35752;52.164;21.244;2022-08-11T12:37:51;4.95;;;0.50;;
49854;SDS011;35752;52.164;21.244;2022-08-11T12:40:26;14.50;;;1.08;;
49854;SDS011;35752;52.164;21.244;2022-08-11T12:43:12;1.48;;;0.35;;
49854;SDS011;35752;52.164;21.244;2022-08-11T12:46:00;4.30;;;0.45;;
49854;SDS011;35752;52.164;21.244;2022-08-11T12:48:55;2.30;;;0.40;;
49854;SDS011;35752;52.164;21.244;2022-08-11T12:51:44;3.10;;;0.63;;
49854;SDS011;35752;52.164;21.244;2022-08-11T12:56:57;5.38;;;0.60;;
49854;SDS011;35752;52.164;21.244;2022-08-11T12:59:46;5.15;;;0.38;;
49854;SDS011;35752;52.164;21.244;2022-08-11T13:02:31;3.60;;;0.38;;
49854;SDS011;35752;52.164;21.244;2022-08-11T13:05:17;2.75;;;0.45;;
49854;SDS011;35752;52.164;21.244;2022-08-11T13:07:44;1.38;;;0.40;;
49854;SDS011;35752;52.164;21.244;2022-08-11T13:10:13;1.65;;;0.25;;
49854;SDS011;35752;52.164;21.244;2022-08-11T13:13:01;1.85;;;0.38;;
49854;SDS011;35752;52.164;21.244;2022-08-11T13:15:28;3.83;;;0.40;;
49854;SDS011;35752;52.164;21.244;2022-08-11T13:17:55;2.05;;;0.52;;
49854;SDS011;35752;52.164;21.244;2022-08-11T13:20:23;1.58;;;0.47;;
49854;SDS011;35752;52.164;21.244;2022-08-11T13:22:51;1.55;;;0.40;;
49854;SDS011;35752;52.164;21.244;2022-08-11T13:25:20;0.90;;;0.30;;
49854;SDS011;35752;52.164;21.244;2022-08-11T13:27:48;3.53;;;0.30;;
49854;SDS011;35752;52.164;21.244;2022-08-11T13:30:16;1.48;;;0.40;;
49854;SDS011;35752;52.164;21.244;2022-08-11T13:33:01;0.60;;;0.17;;
49854;SDS011;35752;52.164;21.244;2022-08-11T13:35:31;4.85;;;0.30;;
49854;SDS011;35752;52.164;21.244;2022-08-11T13:38:00;0.85;;;0.30;;
49854;SDS011;35752;52.164;21.244;2022-08-11T13:40:27;1.80;;;0.60;;
49854;SDS011;35752;52.164;21.244;2022-08-11T13:42:54;1.35;;;0.30;;
49854;SDS011;35752;52.164;21.244;2022-08-11T13:45:23;2.67;;;0.30;;
49854;SDS011;35752;52.164;21.244;2022-08-11T13:47:56;0.45;;;0.25;;
49854;SDS011;35752;52.164;21.244;2022-08-11T13:50:23;52.00;;;3.70;;
49854;SDS011;35752;52.164;21.244;2022-08-11T13:53:09;0.80;;;0.30;;
49854;SDS011;35752;52.164;21.244;2022-08-11T13:55:39;5.13;;;0.50;;
49854;SDS011;35752;52.164;21.244;2022-08-11T13:58:07;2.00;;;0.30;;
49854;SDS011;35752;52.164;21.244;2022-08-11T14:00:35;3.20;;;0.40;;
49854;SDS011;35752;52.164;21.244;2022-08-11T14:03:01;2.33;;;0.32;;
49854;SDS011;35752;52.164;21.244;2022-08-11T14:05:35;1.48;;;0.40;;
49854;SDS011;35752;52.164;21.244;2022-08-11T14:08:11;2.25;;;0.40;;
49854;SDS011;35752;52.164;21.244;2022-08-11T14:10:42;0.70;;;0.20;;
49854;SDS011;35752;52.164;21.244;2022-08-11T14:13:11;1.85;;;0.30;;
49854;SDS011;35752;52.164;21.244;2022-08-11T14:16:00;1.73;;;0.40;;
49854;SDS011;35752;52.164;21.244;2022-08-11T14:18:29;3.03;;;0.38;;
49854;SDS011;35752;52.164;21.244;2022-08-11T14:20:57;2.17;;;0.80;;
49854;SDS011;35752;52.164;21.244;2022-08-11T14:23:48;1.00;;;0.50;;
49854;SDS011;35752;52.164;21.244;2022-08-11T14:26:19;0.60;;;0.47;;
49854;SDS011;35752;52.164;21.244;2022-08-11T14:29:08;4.50;;;0.82;;
49854;SDS011;35752;52.164;21.244;2022-08-11T14:31:39;1.38;;;0.57;;
49854;SDS011;35752;52.164;21.244;2022-08-11T14:34:21;1.77;;;0.30;;
49854;SDS011;35752;52.164;21.244;2022-08-11T14:36:52;3.38;;;0.30;;
49854;SDS011;35752;52.164;21.244;2022-08-11T14:39:26;3.08;;;0.60;;
49854;SDS011;35752;52.164;21.244;2022-08-11T14:41:57;7.28;;;0.70;;
49854;SDS011;35752;52.164;21.244;2022-08-11T14:44:56;3.03;;;0.73;;
49854;SDS011;35752;52.164;21.244;2022-08-11T14:47:49;2.15;;;0.35;;
49854;SDS011;35752;52.164;21.244;2022-08-11T14:50:21;1.95;;;0.40;;
49854;SDS011;35752;52.164;21.244;2022-08-11T14:55:28;2.75;;;0.40;;
49854;SDS011;35752;52.164;21.244;2022-08-11T14:58:18;1.70;;;0.30;;
49854;SDS011;35752;52.164;21.244;2022-08-11T15:00:45;3.78;;;0.57;;
49854;SDS011;35752;52.164;21.244;2022-08-11T15:03:15;1.95;;;0.30;;
49854;SDS011;35752;52.164;21.244;2022-08-11T15:05:44;3.50;;;0.40;;
49854;SDS011;35752;52.164;21.244;2022-08-11T15:08:18;3.05;;;0.38;;
49854;SDS011;35752;52.164;21.244;2022-08-11T15:10:45;2.53;;;0.40;;
49854;SDS011;35752;52.164;21.244;2022-08-11T15:13:15;4.07;;;0.60;;
49854;SDS011;35752;52.164;21.244;2022-08-11T15:15:42;1.05;;;0.30;;
49854;SDS011;35752;52.164;21.244;2022-08-11T15:18:27;9.95;;;0.60;;
49854;SDS011;35752;52.164;21.244;2022-08-11T15:20:53;1.80;;;0.30;;
49854;SDS011;35752;52.164;21.244;2022-08-11T15:23:39;1.02;;;0.30;;
49854;SDS011;35752;52.164;21.244;2022-08-11T15:26:27;2.83;;;0.47;;
49854;SDS011;35752;52.164;21.244;2022-08-11T15:29:19;1.55;;;0.47;;
49854;SDS011;35752;52.164;21.244;2022-08-11T15:32:11;2.25;;;0.30;;
49854;SDS011;35752;52.164;21.244;2022-08-11T15:34:57;1.27;;;0.20;;
49854;SDS011;35752;52.164;21.244;2022-08-11T15:37:43;10.85;;;0.85;;
49854;SDS011;35752;52.164;21.244;2022-08-11T15:40:12;1.50;;;0.50;;
49854;SDS011;35752;52.164;21.244;2022-08-11T15:43:21;2.88;;;0.50;;
49854;SDS011;35752;52.164;21.244;2022-08-11T15:46:41;2.78;;;0.47;;
49854;SDS011;35752;52.164;21.244;2022-08-11T15:49:10;10.35;;;0.70;;
49854;SDS011;35752;52.164;21.244;2022-08-11T15:54:10;3.78;;;0.50;;
49854;SDS011;35752;52.164;21.244;2022-08-11T15:59:10;13.88;;;0.77;;
49854;SDS011;35752;52.164;21.244;2022-08-11T16:01:56;4.97;;;0.60;;
49854;SDS011;35752;52.164;21.244;2022-08-11T16:04:44;4.57;;;0.30;;
49854;SDS011;35752;52.164;21.244;2022-08-11T16:07:14;1.38;;;0.30;;
49854;SDS011;35752;52.164;21.244;2022-08-11T16:09:47;3.92;;;0.30;;
49854;SDS011;35752;52.164;21.244;2022-08-11T16:12:17;2.13;;;0.77;;
49854;SDS011;35752;52.164;21.244;2022-08-11T16:14:48;5.80;;;0.50;;
49854;SDS011;35752;52.164;21.244;2022-08-11T16:17:39;8.93;;;0.63;;
49854;SDS011;35752;52.164;21.244;2022-08-11T16:20:08;4.78;;;0.30;;
49854;SDS011;35752;52.164;21.244;2022-08-11T16:22:39;1.27;;;0.50;;
49854;SDS011;35752;52.164;21.244;2022-08-11T16:25:26;3.25;;;0.20;;
49854;SDS011;35752;52.164;21.244;2022-08-11T16:27:56;0.60;;;0.30;;
49854;SDS011;35752;52.164;21.244;2022-08-11T16:30:36;1.13;;;0.25;;
49854;SDS011;35752;52.164;21.244;2022-08-11T16:33:04;0.60;;;0.30;;
49854;SDS011;35752;52.164;21.244;2022-08-11T16:35:33;2.65;;;0.50;;
49854;SDS011;35752;52.164;21.244;2022-08-11T16:38:20;5.55;;;0.85;;
49854;SDS011;35752;52.164;21.244;2022-08-11T16:41:11;3.25;;;0.60;;
49854;SDS011;35752;52.164;21.244;2022-08-11T16:43:42;2.35;;;0.20;;
49854;SDS011;35752;52.164;21.244;2022-08-11T16:46:28;15.32;;;1.05;;
49854;SDS011;35752;52.164;21.244;2022-08-11T16:49:18;3.17;;;0.93;;
49854;SDS011;35752;52.164;21.244;2022-08-11T16:52:02;4.78;;;0.30;;
49854;SDS011;35752;52.164;21.244;2022-08-11T16:54:31;0.57;;;0.32;;
49854;SDS011;35752;52.164;21.244;2022-08-11T16:56:59;3.60;;;0.55;;
49854;SDS011;35752;52.164;21.244;2022-08-11T16:59:48;1.60;;;0.60;;
49854;SDS011;35752;52.164;21.244;2022-08-11T17:02:17;1.75;;;0.45;;
49854;SDS011;35752;52.164;21.244;2022-08-11T17:05:13;1.48;;;0.35;;
49854;SDS011;35752;52.164;21.244;2022-08-11T17:08:00;9.23;;;0.60;;
49854;SDS011;35752;52.164;21.244;2022-08-11T17:10:48;7.38;;;0.60;;
49854;SDS011;35752;52.164;21.244;2022-08-11T17:13:45;7.53;;;0.80;;
49854;SDS011;35752;52.164;21.244;2022-08-11T17:16:31;3.90;;;0.55;;
49854;SDS011;35752;52.164;21.244;2022-08-11T17:19:09;9.43;;;0.90;;
49854;SDS011;35752;52.164;21.244;2022-08-11T17:21:39;6.55;;;0.70;;
49854;SDS011;35752;52.164;21.244;2022-08-11T17:24:26;3.33;;;0.73;;
49854;SDS011;35752;52.164;21.244;2022-08-11T17:26:56;5.88;;;0.80;;
49854;SDS011;35752;52.164;21.244;2022-08-11T17:31:53;2.67;;;0.60;;
49854;SDS011;35752;52.164;21.244;2022-08-11T17:34:39;3.50;;;0.57;;
49854;SDS011;35752;52.164;21.244;2022-08-11T17:37:26;8.23;;;1.17;;
49854;SDS011;35752;52.164;21.244;2022-08-11T17:39:55;5.53;;;0.73;;
49854;SDS011;35752;52.164;21.244;2022-08-11T17:42:22;7.20;;;0.73;;
49854;SDS011;35752;52.164;21.244;2022-08-11T17:45:09;3.28;;;0.40;;
49854;SDS011;35752;52.164;21.244;2022-08-11T17:47:55;4.03;;;0.57;;
49854;SDS011;35752;52.164;21.244;2022-08-11T17:50:43;3.22;;;0.60;;
49854;SDS011;35752;52.164;21.244;2022-08-11T17:53:10;3.33;;;0.40;;
49854;SDS011;35752;52.164;21.244;2022-08-11T17:55:57;4.40;;;0.50;;
49854;SDS011;35752;52.164;21.244;2022-08-11T17:58:43;5.63;;;0.90;;
49854;SDS011;35752;52.164;21.244;2022-08-11T18:01:29;4.03;;;0.70;;
49854;SDS011;35752;52.164;21.244;2022-08-11T18:06:29;6.57;;;0.60;;
49854;SDS011;35752;52.164;21.244;2022-08-11T18:08:56;5.25;;;1.00;;
49854;SDS011;35752;52.164;21.244;2022-08-11T18:11:42;7.13;;;0.80;;
49854;SDS011;35752;52.164;21.244;2022-08-11T18:14:30;3.22;;;0.70;;
49854;SDS011;35752;52.164;21.244;2022-08-11T18:17:16;7.65;;;0.82;;
49854;SDS011;35752;52.164;21.244;2022-08-11T18:20:01;3.90;;;1.15;;
49854;SDS011;35752;52.164;21.244;2022-08-11T18:22:46;3.35;;;0.77;;
49854;SDS011;35752;52.164;21.244;2022-08-11T18:25:31;2.75;;;0.95;;
49854;SDS011;35752;52.164;21.244;2022-08-11T18:28:23;4.28;;;0.95;;
49854;SDS011;35752;52.164;21.244;2022-08-11T18:31:10;9.18;;;0.90;;
49854;SDS011;35752;52.164;21.244;2022-08-11T18:34:01;6.28;;;1.30;;
49854;SDS011;35752;52.164;21.244;2022-08-11T18:37:05;8.68;;;1.25;;
49854;SDS011;35752;52.164;21.244;2022-08-11T18:39:57;7.95;;;1.08;;
49854;SDS011;35752;52.164;21.244;2022-08-11T18:42:46;5.80;;;1.20;;
49854;SDS011;35752;52.164;21.244;2022-08-11T18:45:33;7.15;;;1.35;;
49854;SDS011;35752;52.164;21.244;2022-08-11T18:48:21;12.02;;;1.30;;
49854;SDS011;35752;52.164;21.244;2022-08-11T18:51:07;8.32;;;1.13;;
49854;SDS011;35752;52.164;21.244;2022-08-11T18:53:55;36.00;;;3.00;;
49854;SDS011;35752;52.164;21.244;2022-08-11T18:56:44;42.45;;;3.17;;
49854;SDS011;35752;52.164;21.244;2022-08-11T18:59:30;57.83;;;3.33;;
49854;SDS011;35752;52.164;21.244;2022-08-11T19:02:19;9.32;;;1.20;;
49854;SDS011;35752;52.164;21.244;2022-08-11T19:05:05;13.75;;;1.63;;
49854;SDS011;35752;52.164;21.244;2022-08-11T19:07:51;11.98;;;1.70;;
49854;SDS011;35752;52.164;21.244;2022-08-11T19:10:40;8.55;;;1.02;;
49854;SDS011;35752;52.164;21.244;2022-08-11T19:13:26;4.47;;;1.20;;
49854;SDS011;35752;52.164;21.244;2022-08-11T19:16:13;9.40;;;1.48;;
49854;SDS011;35752;52.164;21.244;2022-08-11T19:18:58;11.65;;;1.40;;
49854;SDS011;35752;52.164;21.244;2022-08-11T19:21:44;8.55;;;1.30;;
49854;SDS011;35752;52.164;21.244;2022-08-11T19:24:29;7.43;;;1.30;;
49854;SDS011;35752;52.164;21.244;2022-08-11T19:27:15;57.00;;;5.60;;
49854;SDS011;35752;52.164;21.244;2022-08-11T19:30:00;15.98;;;5.00;;
49854;SDS011;35752;52.164;21.244;2022-08-11T19:32:44;12.90;;;5.13;;
49854;SDS011;35752;52.164;21.244;2022-08-11T19:35:29;11.73;;;7.35;;